sensor_id;sensor_type;location;lat;lon;timestamp;P1;durP1;ratioP1;P2;durP2;ratioP2
72891;SDS011;61032;50.782;6.818;2023-02-18T00:00:38;3.58;;;2.05;;
72891;SDS011;61032;50.782;6.818;2023-02-18T00:01:39;4.80;;;2.58;;
72891;SDS011;61032;50.782;6.818;2023-02-18T00:02:40;4.28;;;2.53;;
72891;SDS011;61032;50.782;6.818;2023-02-18T00:03:40;3.15;;;2.03;;
72891;SDS011;61032;50.782;6.818;2023-02-18T00:04:41;3.63;;;2.25;;
72891;SDS011;61032;50.782;6.818;2023-02-18T00:05:41;4.45;;;2.00;;
72891;SDS011;61032;50.782;6.818;2023-02-18T00:06:41;4.05;;;2.25;;
72891;SDS011;61032;50.782;6.818;2023-02-18T00:07:42;4.53;;;3.15;;
72891;SDS011;61032;50.782;6.818;2023-02-18T00:08:44;3.65;;;1.92;;
72891;SDS011;61032;50.782;6.818;2023-02-18T00:09:45;3.92;;;2.55;;
72891;SDS011;61032;50.782;6.818;2023-02-18T00:10:46;4.07;;;2.40;;
72891;SDS011;61032;50.782;6.818;2023-02-18T00:11:46;4.75;;;2.03;;
72891;SDS011;61032;50.782;6.818;2023-02-18T00:12:46;4.35;;;2.28;;
72891;SDS011;61032;50.782;6.818;2023-02-18T00:13:51;4.15;;;2.67;;
72891;SDS011;61032;50.782;6.818;2023-02-18T00:14:52;4.47;;;2.28;;
72891;SDS011;61032;50.782;6.818;2023-02-18T00:15:53;3.42;;;2.22;;
72891;SDS011;61032;50.782;6.818;2023-02-18T00:16:53;3.42;;;2.33;;
72891;SDS011;61032;50.782;6.818;2023-02-18T00:17:53;4.22;;;2.40;;
72891;SDS011;61032;50.782;6.818;2023-02-18T00:18:55;3.92;;;2.35;;
72891;SDS011;61032;50.782;6.818;2023-02-18T00:20:00;4.07;;;2.17;;
72891;SDS011;61032;50.782;6.818;2023-02-18T00:21:02;3.92;;;2.50;;
72891;SDS011;61032;50.782;6.818;2023-02-18T00:22:03;3.83;;;2.17;;
72891;SDS011;61032;50.782;6.818;2023-02-18T00:23:04;4.25;;;2.65;;
72891;SDS011;61032;50.782;6.818;2023-02-18T00:24:05;3.45;;;2.40;;
72891;SDS011;61032;50.782;6.818;2023-02-18T00:25:06;4.00;;;2.58;;
72891;SDS011;61032;50.782;6.818;2023-02-18T00:26:09;5.40;;;2.65;;
72891;SDS011;61032;50.782;6.818;2023-02-18T00:27:11;5.20;;;2.95;;
72891;SDS011;61032;50.782;6.818;2023-02-18T00:28:11;5.47;;;2.58;;
72891;SDS011;61032;50.782;6.818;2023-02-18T00:29:12;4.82;;;2.63;;
72891;SDS011;61032;50.782;6.818;2023-02-18T00:30:12;3.85;;;2.38;;
72891;SDS011;61032;50.782;6.818;2023-02-18T00:31:14;4.60;;;2.65;;
72891;SDS011;61032;50.782;6.818;2023-02-18T00:32:16;3.97;;;2.53;;
72891;SDS011;61032;50.782;6.818;2023-02-18T00:33:16;7.30;;;2.75;;
72891;SDS011;61032;50.782;6.818;2023-02-18T00:34:17;5.15;;;2.55;;
72891;SDS011;61032;50.782;6.818;2023-02-18T00:35:17;3.72;;;2.42;;
72891;SDS011;61032;50.782;6.818;2023-02-18T00:36:18;4.72;;;2.97;;
72891;SDS011;61032;50.782;6.818;2023-02-18T00:37:19;4.65;;;2.45;;
72891;SDS011;61032;50.782;6.818;2023-02-18T00:38:19;3.60;;;2.33;;
72891;SDS011;61032;50.782;6.818;2023-02-18T00:39:20;3.50;;;2.13;;
72891;SDS011;61032;50.782;6.818;2023-02-18T00:40:20;3.55;;;2.17;;
72891;SDS011;61032;50.782;6.818;2023-02-18T00:41:21;3.85;;;2.75;;
72891;SDS011;61032;50.782;6.818;2023-02-18T00:42:23;4.32;;;2.38;;
72891;SDS011;61032;50.782;6.818;2023-02-18T00:43:23;4.18;;;2.78;;
72891;SDS011;61032;50.782;6.818;2023-02-18T00:44:23;4.40;;;2.53;;
72891;SDS011;61032;50.782;6.818;2023-02-18T00:45:24;5.60;;;2.38;;
72891;SDS011;61032;50.782;6.818;2023-02-18T00:46:24;4.72;;;2.40;;
72891;SDS011;61032;50.782;6.818;2023-02-18T00:47:25;5.13;;;2.58;;
72891;SDS011;61032;50.782;6.818;2023-02-18T00:48:26;5.72;;;2.70;;
72891;SDS011;61032;50.782;6.818;2023-02-18T00:49:26;3.95;;;2.65;;
72891;SDS011;61032;50.782;6.818;2023-02-18T00:50:27;4.80;;;2.78;;
72891;SDS011;61032;50.782;6.818;2023-02-18T00:51:27;4.18;;;2.50;;
72891;SDS011;61032;50.782;6.818;2023-02-18T00:52:27;5.30;;;2.45;;
72891;SDS011;61032;50.782;6.818;2023-02-18T00:53:28;4.63;;;2.42;;
72891;SDS011;61032;50.782;6.818;2023-02-18T00:54:29;3.60;;;2.42;;
72891;SDS011;61032;50.782;6.818;2023-02-18T00:55:29;4.35;;;2.55;;
72891;SDS011;61032;50.782;6.818;2023-02-18T00:56:29;3.80;;;2.58;;
72891;SDS011;61032;50.782;6.818;2023-02-18T00:57:29;4.47;;;2.15;;
72891;SDS011;61032;50.782;6.818;2023-02-18T00:58:30;4.07;;;2.45;;
72891;SDS011;61032;50.782;6.818;2023-02-18T00:59:30;3.42;;;2.08;;
72891;SDS011;61032;50.782;6.818;2023-02-18T01:00:30;3.38;;;2.33;;
72891;SDS011;61032;50.782;6.818;2023-02-18T01:01:31;3.88;;;2.38;;
72891;SDS011;61032;50.782;6.818;2023-02-18T01:02:31;2.92;;;2.15;;
72891;SDS011;61032;50.782;6.818;2023-02-18T01:03:32;5.97;;;2.20;;
72891;SDS011;61032;50.782;6.818;2023-02-18T01:04:33;4.53;;;2.60;;
72891;SDS011;61032;50.782;6.818;2023-02-18T01:05:33;3.15;;;1.90;;
72891;SDS011;61032;50.782;6.818;2023-02-18T01:06:34;3.30;;;1.85;;
72891;SDS011;61032;50.782;6.818;2023-02-18T01:07:34;4.07;;;1.98;;
72891;SDS011;61032;50.782;6.818;2023-02-18T01:08:35;3.13;;;1.75;;
72891;SDS011;61032;50.782;6.818;2023-02-18T01:09:36;3.42;;;2.10;;
72891;SDS011;61032;50.782;6.818;2023-02-18T01:10:40;3.40;;;1.98;;
72891;SDS011;61032;50.782;6.818;2023-02-18T01:11:41;3.50;;;2.08;;
72891;SDS011;61032;50.782;6.818;2023-02-18T01:12:41;3.38;;;2.03;;
72891;SDS011;61032;50.782;6.818;2023-02-18T01:13:42;3.42;;;1.92;;
72891;SDS011;61032;50.782;6.818;2023-02-18T01:14:42;3.92;;;2.10;;
72891;SDS011;61032;50.782;6.818;2023-02-18T01:15:42;4.35;;;2.00;;
72891;SDS011;61032;50.782;6.818;2023-02-18T01:16:45;3.60;;;2.10;;
72891;SDS011;61032;50.782;6.818;2023-02-18T01:17:45;3.05;;;1.88;;
72891;SDS011;61032;50.782;6.818;2023-02-18T01:18:45;3.30;;;1.45;;
72891;SDS011;61032;50.782;6.818;2023-02-18T01:19:46;3.47;;;1.65;;
72891;SDS011;61032;50.782;6.818;2023-02-18T01:20:46;2.38;;;1.70;;
72891;SDS011;61032;50.782;6.818;2023-02-18T01:21:47;2.42;;;1.48;;
72891;SDS011;61032;50.782;6.818;2023-02-18T01:22:47;2.80;;;1.65;;
72891;SDS011;61032;50.782;6.818;2023-02-18T01:23:48;2.78;;;1.77;;
72891;SDS011;61032;50.782;6.818;2023-02-18T01:24:48;4.10;;;1.70;;
72891;SDS011;61032;50.782;6.818;2023-02-18T01:25:49;3.40;;;1.60;;
72891;SDS011;61032;50.782;6.818;2023-02-18T01:26:49;3.40;;;1.60;;
72891;SDS011;61032;50.782;6.818;2023-02-18T01:27:49;2.55;;;1.38;;
72891;SDS011;61032;50.782;6.818;2023-02-18T01:28:50;2.58;;;1.45;;
72891;SDS011;61032;50.782;6.818;2023-02-18T01:29:50;2.28;;;1.38;;
72891;SDS011;61032;50.782;6.818;2023-02-18T01:30:51;3.50;;;1.77;;
72891;SDS011;61032;50.782;6.818;2023-02-18T01:31:52;3.17;;;2.20;;
72891;SDS011;61032;50.782;6.818;2023-02-18T01:32:52;5.45;;;1.80;;
72891;SDS011;61032;50.782;6.818;2023-02-18T01:33:52;3.65;;;2.00;;
72891;SDS011;61032;50.782;6.818;2023-02-18T01:34:53;2.92;;;1.80;;
72891;SDS011;61032;50.782;6.818;2023-02-18T01:35:53;2.47;;;1.38;;
72891;SDS011;61032;50.782;6.818;2023-02-18T01:36:54;2.92;;;1.40;;
72891;SDS011;61032;50.782;6.818;2023-02-18T01:37:54;2.20;;;1.35;;
72891;SDS011;61032;50.782;6.818;2023-02-18T01:38:55;2.40;;;1.50;;
72891;SDS011;61032;50.782;6.818;2023-02-18T01:39:55;2.88;;;1.60;;
72891;SDS011;61032;50.782;6.818;2023-02-18T01:40:56;2.38;;;1.30;;
72891;SDS011;61032;50.782;6.818;2023-02-18T01:41:56;2.85;;;1.60;;
72891;SDS011;61032;50.782;6.818;2023-02-18T01:42:56;4.65;;;1.45;;
72891;SDS011;61032;50.782;6.818;2023-02-18T01:46:36;4.50;;;1.58;;
72891;SDS011;61032;50.782;6.818;2023-02-18T01:47:37;2.45;;;1.30;;
72891;SDS011;61032;50.782;6.818;2023-02-18T01:48:38;2.30;;;1.23;;
72891;SDS011;61032;50.782;6.818;2023-02-18T01:49:47;2.50;;;1.77;;
72891;SDS011;61032;50.782;6.818;2023-02-18T01:50:53;2.65;;;1.60;;
72891;SDS011;61032;50.782;6.818;2023-02-18T01:52:02;2.40;;;1.48;;
72891;SDS011;61032;50.782;6.818;2023-02-18T01:53:08;2.53;;;1.45;;
72891;SDS011;61032;50.782;6.818;2023-02-18T01:54:17;2.58;;;1.60;;
72891;SDS011;61032;50.782;6.818;2023-02-18T01:55:22;2.60;;;1.42;;
72891;SDS011;61032;50.782;6.818;2023-02-18T01:56:33;8.23;;;1.40;;
72891;SDS011;61032;50.782;6.818;2023-02-18T01:57:38;2.33;;;1.48;;
72891;SDS011;61032;50.782;6.818;2023-02-18T01:58:39;2.50;;;1.60;;
72891;SDS011;61032;50.782;6.818;2023-02-18T01:59:42;3.13;;;1.73;;
72891;SDS011;61032;50.782;6.818;2023-02-18T02:00:45;3.78;;;1.45;;
72891;SDS011;61032;50.782;6.818;2023-02-18T02:01:46;2.50;;;1.50;;
72891;SDS011;61032;50.782;6.818;2023-02-18T02:02:47;1.95;;;1.10;;
72891;SDS011;61032;50.782;6.818;2023-02-18T02:03:49;2.22;;;1.23;;
72891;SDS011;61032;50.782;6.818;2023-02-18T02:04:50;2.17;;;1.20;;
72891;SDS011;61032;50.782;6.818;2023-02-18T02:05:51;2.42;;;1.50;;
72891;SDS011;61032;50.782;6.818;2023-02-18T02:06:51;3.05;;;1.70;;
72891;SDS011;61032;50.782;6.818;2023-02-18T02:07:51;2.47;;;1.30;;
72891;SDS011;61032;50.782;6.818;2023-02-18T02:08:54;2.08;;;1.40;;
72891;SDS011;61032;50.782;6.818;2023-02-18T02:09:57;2.60;;;1.30;;
72891;SDS011;61032;50.782;6.818;2023-02-18T02:15:18;2.80;;;1.63;;
72891;SDS011;61032;50.782;6.818;2023-02-18T02:21:14;1.70;;;0.80;;
72891;SDS011;61032;50.782;6.818;2023-02-18T02:22:48;3.80;;;1.67;;
72891;SDS011;61032;50.782;6.818;2023-02-18T02:33:55;2.75;;;1.13;;
72891;SDS011;61032;50.782;6.818;2023-02-18T02:35:21;1.80;;;1.13;;
72891;SDS011;61032;50.782;6.818;2023-02-18T02:36:27;2.42;;;1.25;;
72891;SDS011;61032;50.782;6.818;2023-02-18T02:38:42;5.22;;;1.63;;
72891;SDS011;61032;50.782;6.818;2023-02-18T02:43:38;4.32;;;1.60;;
72891;SDS011;61032;50.782;6.818;2023-02-18T02:47:37;6.72;;;2.00;;
72891;SDS011;61032;50.782;6.818;2023-02-18T02:48:49;6.28;;;1.50;;
72891;SDS011;61032;50.782;6.818;2023-02-18T02:51:19;3.45;;;1.92;;
72891;SDS011;61032;50.782;6.818;2023-02-18T02:52:31;4.50;;;1.70;;
72891;SDS011;61032;50.782;6.818;2023-02-18T02:53:36;2.72;;;1.27;;
72891;SDS011;61032;50.782;6.818;2023-02-18T02:54:39;5.82;;;1.92;;
72891;SDS011;61032;50.782;6.818;2023-02-18T02:55:39;3.42;;;1.20;;
72891;SDS011;61032;50.782;6.818;2023-02-18T02:56:39;4.65;;;1.63;;
72891;SDS011;61032;50.782;6.818;2023-02-18T02:58:56;2.03;;;0.70;;
72891;SDS011;61032;50.782;6.818;2023-02-18T03:00:01;3.03;;;0.80;;
72891;SDS011;61032;50.782;6.818;2023-02-18T03:06:56;0.50;;;0.10;;
72891;SDS011;61032;50.782;6.818;2023-02-18T03:08:29;0.30;;;0.03;;
72891;SDS011;61032;50.782;6.818;2023-02-18T03:10:01;0.45;;;0.20;;
72891;SDS011;61032;50.782;6.818;2023-02-18T03:11:11;0.30;;;0.10;;
72891;SDS011;61032;50.782;6.818;2023-02-18T03:13:44;0.25;;;0.10;;
72891;SDS011;61032;50.782;6.818;2023-02-18T03:15:13;0.20;;;0.10;;
72891;SDS011;61032;50.782;6.818;2023-02-18T03:17:45;0.10;;;0.00;;
72891;SDS011;61032;50.782;6.818;2023-02-18T03:20:15;0.25;;;0.10;;
72891;SDS011;61032;50.782;6.818;2023-02-18T03:21:26;0.20;;;0.10;;
72891;SDS011;61032;50.782;6.818;2023-02-18T03:22:30;0.30;;;0.05;;
72891;SDS011;61032;50.782;6.818;2023-02-18T03:23:37;0.25;;;0.10;;
72891;SDS011;61032;50.782;6.818;2023-02-18T03:24:43;0.13;;;0.03;;
72891;SDS011;61032;50.782;6.818;2023-02-18T03:25:46;0.40;;;0.10;;
72891;SDS011;61032;50.782;6.818;2023-02-18T03:26:54;0.30;;;0.10;;
72891;SDS011;61032;50.782;6.818;2023-02-18T03:28:02;0.35;;;0.17;;
72891;SDS011;61032;50.782;6.818;2023-02-18T03:29:06;0.20;;;0.10;;
72891;SDS011;61032;50.782;6.818;2023-02-18T03:30:10;0.22;;;0.10;;
72891;SDS011;61032;50.782;6.818;2023-02-18T03:31:16;0.20;;;0.05;;
72891;SDS011;61032;50.782;6.818;2023-02-18T03:32:20;0.10;;;0.00;;
72891;SDS011;61032;50.782;6.818;2023-02-18T03:33:26;0.47;;;0.35;;
72891;SDS011;61032;50.782;6.818;2023-02-18T03:34:31;0.25;;;0.10;;
72891;SDS011;61032;50.782;6.818;2023-02-18T03:35:37;0.32;;;0.15;;
72891;SDS011;61032;50.782;6.818;2023-02-18T03:36:38;0.10;;;0.00;;
72891;SDS011;61032;50.782;6.818;2023-02-18T03:37:41;0.20;;;0.10;;
72891;SDS011;61032;50.782;6.818;2023-02-18T03:38:52;0.10;;;0.00;;
72891;SDS011;61032;50.782;6.818;2023-02-18T03:39:59;0.40;;;0.10;;
72891;SDS011;61032;50.782;6.818;2023-02-18T03:41:01;0.10;;;0.00;;
72891;SDS011;61032;50.782;6.818;2023-02-18T03:42:01;0.10;;;0.10;;
72891;SDS011;61032;50.782;6.818;2023-02-18T03:43:02;0.32;;;0.25;;
72891;SDS011;61032;50.782;6.818;2023-02-18T03:44:03;0.20;;;0.10;;
72891;SDS011;61032;50.782;6.818;2023-02-18T03:45:05;0.10;;;0.10;;
72891;SDS011;61032;50.782;6.818;2023-02-18T03:46:05;0.30;;;0.08;;
72891;SDS011;61032;50.782;6.818;2023-02-18T03:47:06;0.10;;;0.10;;
72891;SDS011;61032;50.782;6.818;2023-02-18T03:48:07;0.10;;;0.00;;
72891;SDS011;61032;50.782;6.818;2023-02-18T03:49:08;0.30;;;0.10;;
72891;SDS011;61032;50.782;6.818;2023-02-18T03:50:09;0.25;;;0.05;;
72891;SDS011;61032;50.782;6.818;2023-02-18T03:51:09;0.30;;;0.10;;
72891;SDS011;61032;50.782;6.818;2023-02-18T03:52:10;0.03;;;0.03;;
72891;SDS011;61032;50.782;6.818;2023-02-18T03:53:10;0.70;;;0.10;;
72891;SDS011;61032;50.782;6.818;2023-02-18T03:54:11;0.10;;;0.00;;
72891;SDS011;61032;50.782;6.818;2023-02-18T03:55:13;0.05;;;0.00;;
72891;SDS011;61032;50.782;6.818;2023-02-18T03:56:13;0.20;;;0.03;;
72891;SDS011;61032;50.782;6.818;2023-02-18T03:57:14;0.08;;;0.00;;
72891;SDS011;61032;50.782;6.818;2023-02-18T03:58:14;0.00;;;0.00;;
72891;SDS011;61032;50.782;6.818;2023-02-18T03:59:15;0.45;;;0.05;;
72891;SDS011;61032;50.782;6.818;2023-02-18T04:00:15;0.10;;;0.00;;
72891;SDS011;61032;50.782;6.818;2023-02-18T04:01:16;0.10;;;0.00;;
72891;SDS011;61032;50.782;6.818;2023-02-18T04:02:16;0.05;;;0.05;;
72891;SDS011;61032;50.782;6.818;2023-02-18T04:03:17;0.30;;;0.30;;
72891;SDS011;61032;50.782;6.818;2023-02-18T04:04:17;0.22;;;0.05;;
72891;SDS011;61032;50.782;6.818;2023-02-18T04:05:18;0.28;;;0.00;;
72891;SDS011;61032;50.782;6.818;2023-02-18T04:06:18;0.20;;;0.00;;
72891;SDS011;61032;50.782;6.818;2023-02-18T04:07:18;0.22;;;0.22;;
72891;SDS011;61032;50.782;6.818;2023-02-18T04:08:19;0.10;;;0.00;;
72891;SDS011;61032;50.782;6.818;2023-02-18T04:09:19;0.10;;;0.00;;
72891;SDS011;61032;50.782;6.818;2023-02-18T04:10:20;0.10;;;0.00;;
72891;SDS011;61032;50.782;6.818;2023-02-18T04:11:21;0.10;;;0.03;;
72891;SDS011;61032;50.782;6.818;2023-02-18T04:12:22;0.00;;;0.00;;
72891;SDS011;61032;50.782;6.818;2023-02-18T04:13:22;0.32;;;0.10;;
72891;SDS011;61032;50.782;6.818;2023-02-18T04:14:22;0.10;;;0.08;;
72891;SDS011;61032;50.782;6.818;2023-02-18T04:15:23;0.10;;;0.08;;
72891;SDS011;61032;50.782;6.818;2023-02-18T04:16:23;0.00;;;0.00;;
72891;SDS011;61032;50.782;6.818;2023-02-18T04:17:23;0.65;;;0.00;;
72891;SDS011;61032;50.782;6.818;2023-02-18T04:18:24;0.00;;;0.00;;
72891;SDS011;61032;50.782;6.818;2023-02-18T04:19:24;0.00;;;0.00;;
72891;SDS011;61032;50.782;6.818;2023-02-18T04:20:24;0.20;;;0.00;;
72891;SDS011;61032;50.782;6.818;2023-02-18T04:21:25;0.17;;;0.08;;
72891;SDS011;61032;50.782;6.818;2023-02-18T04:22:25;0.00;;;0.00;;
72891;SDS011;61032;50.782;6.818;2023-02-18T04:23:25;0.20;;;0.03;;
72891;SDS011;61032;50.782;6.818;2023-02-18T04:24:26;0.00;;;0.00;;
72891;SDS011;61032;50.782;6.818;2023-02-18T04:25:26;0.05;;;0.00;;
72891;SDS011;61032;50.782;6.818;2023-02-18T04:26:26;0.20;;;0.00;;
72891;SDS011;61032;50.782;6.818;2023-02-18T04:27:27;0.00;;;0.00;;
72891;SDS011;61032;50.782;6.818;2023-02-18T04:28:27;0.25;;;0.00;;
72891;SDS011;61032;50.782;6.818;2023-02-18T04:29:28;0.00;;;0.00;;
72891;SDS011;61032;50.782;6.818;2023-02-18T04:30:28;1.60;;;0.00;;
72891;SDS011;61032;50.782;6.818;2023-02-18T04:31:28;0.10;;;0.10;;
72891;SDS011;61032;50.782;6.818;2023-02-18T04:32:28;0.10;;;0.00;;
72891;SDS011;61032;50.782;6.818;2023-02-18T04:33:29;0.00;;;0.00;;
72891;SDS011;61032;50.782;6.818;2023-02-18T04:34:29;0.10;;;0.00;;
72891;SDS011;61032;50.782;6.818;2023-02-18T04:35:29;0.03;;;0.03;;
72891;SDS011;61032;50.782;6.818;2023-02-18T04:36:30;0.17;;;0.10;;
72891;SDS011;61032;50.782;6.818;2023-02-18T04:37:30;0.10;;;0.00;;
72891;SDS011;61032;50.782;6.818;2023-02-18T04:38:30;0.03;;;0.03;;
72891;SDS011;61032;50.782;6.818;2023-02-18T04:39:30;0.63;;;0.00;;
72891;SDS011;61032;50.782;6.818;2023-02-18T04:40:31;0.32;;;0.10;;
72891;SDS011;61032;50.782;6.818;2023-02-18T04:41:31;0.05;;;0.00;;
72891;SDS011;61032;50.782;6.818;2023-02-18T04:42:31;0.15;;;0.10;;
72891;SDS011;61032;50.782;6.818;2023-02-18T04:43:32;0.08;;;0.05;;
72891;SDS011;61032;50.782;6.818;2023-02-18T04:44:32;0.10;;;0.00;;
72891;SDS011;61032;50.782;6.818;2023-02-18T04:45:32;0.20;;;0.00;;
72891;SDS011;61032;50.782;6.818;2023-02-18T04:46:33;0.50;;;0.20;;
72891;SDS011;61032;50.782;6.818;2023-02-18T04:47:33;0.55;;;0.08;;
72891;SDS011;61032;50.782;6.818;2023-02-18T04:48:33;0.35;;;0.10;;
72891;SDS011;61032;50.782;6.818;2023-02-18T04:49:34;0.98;;;0.22;;
72891;SDS011;61032;50.782;6.818;2023-02-18T04:50:34;0.35;;;0.35;;
72891;SDS011;61032;50.782;6.818;2023-02-18T04:51:35;0.10;;;0.00;;
72891;SDS011;61032;50.782;6.818;2023-02-18T04:52:36;0.20;;;0.10;;
72891;SDS011;61032;50.782;6.818;2023-02-18T04:53:36;0.10;;;0.00;;
72891;SDS011;61032;50.782;6.818;2023-02-18T04:54:37;0.10;;;0.00;;
72891;SDS011;61032;50.782;6.818;2023-02-18T04:55:37;0.08;;;0.00;;
72891;SDS011;61032;50.782;6.818;2023-02-18T04:56:37;0.17;;;0.00;;
72891;SDS011;61032;50.782;6.818;2023-02-18T04:57:38;0.22;;;0.20;;
72891;SDS011;61032;50.782;6.818;2023-02-18T04:58:38;0.08;;;0.00;;
72891;SDS011;61032;50.782;6.818;2023-02-18T04:59:38;0.17;;;0.03;;
72891;SDS011;61032;50.782;6.818;2023-02-18T05:00:39;0.05;;;0.00;;
72891;SDS011;61032;50.782;6.818;2023-02-18T05:01:39;0.20;;;0.00;;
72891;SDS011;61032;50.782;6.818;2023-02-18T05:02:39;0.22;;;0.10;;
72891;SDS011;61032;50.782;6.818;2023-02-18T05:03:40;0.63;;;0.10;;
72891;SDS011;61032;50.782;6.818;2023-02-18T05:04:40;0.10;;;0.10;;
72891;SDS011;61032;50.782;6.818;2023-02-18T05:05:40;0.00;;;0.00;;
72891;SDS011;61032;50.782;6.818;2023-02-18T05:06:40;0.30;;;0.00;;
72891;SDS011;61032;50.782;6.818;2023-02-18T05:07:42;0.10;;;0.00;;
72891;SDS011;61032;50.782;6.818;2023-02-18T05:08:42;0.10;;;0.05;;
72891;SDS011;61032;50.782;6.818;2023-02-18T05:09:42;0.50;;;0.10;;
72891;SDS011;61032;50.782;6.818;2023-02-18T05:10:43;0.00;;;0.00;;
72891;SDS011;61032;50.782;6.818;2023-02-18T05:11:43;0.15;;;0.00;;
72891;SDS011;61032;50.782;6.818;2023-02-18T05:12:46;0.00;;;0.00;;
72891;SDS011;61032;50.782;6.818;2023-02-18T05:13:46;0.05;;;0.00;;
72891;SDS011;61032;50.782;6.818;2023-02-18T05:14:47;0.20;;;0.00;;
72891;SDS011;61032;50.782;6.818;2023-02-18T05:15:47;0.38;;;0.00;;
72891;SDS011;61032;50.782;6.818;2023-02-18T05:16:48;0.40;;;0.00;;
72891;SDS011;61032;50.782;6.818;2023-02-18T05:17:48;0.55;;;0.10;;
72891;SDS011;61032;50.782;6.818;2023-02-18T05:18:49;0.28;;;0.10;;
72891;SDS011;61032;50.782;6.818;2023-02-18T05:19:49;0.80;;;0.00;;
72891;SDS011;61032;50.782;6.818;2023-02-18T05:20:49;0.05;;;0.00;;
72891;SDS011;61032;50.782;6.818;2023-02-18T05:21:50;0.10;;;0.10;;
72891;SDS011;61032;50.782;6.818;2023-02-18T05:22:50;0.22;;;0.00;;
72891;SDS011;61032;50.782;6.818;2023-02-18T05:23:50;0.35;;;0.00;;
72891;SDS011;61032;50.782;6.818;2023-02-18T05:24:50;0.10;;;0.00;;
72891;SDS011;61032;50.782;6.818;2023-02-18T05:25:51;0.20;;;0.00;;
72891;SDS011;61032;50.782;6.818;2023-02-18T05:26:51;0.20;;;0.20;;
72891;SDS011;61032;50.782;6.818;2023-02-18T05:27:51;1.13;;;0.13;;
72891;SDS011;61032;50.782;6.818;2023-02-18T05:28:52;1.13;;;0.10;;
72891;SDS011;61032;50.782;6.818;2023-02-18T05:29:52;0.00;;;0.00;;
72891;SDS011;61032;50.782;6.818;2023-02-18T05:30:52;0.00;;;0.00;;
72891;SDS011;61032;50.782;6.818;2023-02-18T05:31:53;0.10;;;0.05;;
72891;SDS011;61032;50.782;6.818;2023-02-18T05:32:54;0.10;;;0.00;;
72891;SDS011;61032;50.782;6.818;2023-02-18T05:33:54;0.10;;;0.00;;
72891;SDS011;61032;50.782;6.818;2023-02-18T05:34:54;0.40;;;0.03;;
72891;SDS011;61032;50.782;6.818;2023-02-18T05:35:54;0.00;;;0.00;;
72891;SDS011;61032;50.782;6.818;2023-02-18T05:36:55;0.10;;;0.10;;
72891;SDS011;61032;50.782;6.818;2023-02-18T05:37:55;0.20;;;0.00;;
72891;SDS011;61032;50.782;6.818;2023-02-18T05:38:55;0.00;;;0.00;;
72891;SDS011;61032;50.782;6.818;2023-02-18T05:39:56;0.10;;;0.00;;
72891;SDS011;61032;50.782;6.818;2023-02-18T05:40:56;0.30;;;0.10;;
72891;SDS011;61032;50.782;6.818;2023-02-18T05:41:56;0.22;;;0.00;;
72891;SDS011;61032;50.782;6.818;2023-02-18T05:42:57;0.68;;;0.00;;
72891;SDS011;61032;50.782;6.818;2023-02-18T05:43:57;0.00;;;0.00;;
72891;SDS011;61032;50.782;6.818;2023-02-18T05:45:16;0.00;;;0.00;;
72891;SDS011;61032;50.782;6.818;2023-02-18T05:46:16;0.82;;;0.00;;
72891;SDS011;61032;50.782;6.818;2023-02-18T05:47:17;0.10;;;0.00;;
72891;SDS011;61032;50.782;6.818;2023-02-18T05:48:17;0.00;;;0.00;;
72891;SDS011;61032;50.782;6.818;2023-02-18T05:49:17;0.57;;;0.00;;
72891;SDS011;61032;50.782;6.818;2023-02-18T05:50:18;0.15;;;0.00;;
72891;SDS011;61032;50.782;6.818;2023-02-18T05:51:18;0.00;;;0.00;;
72891;SDS011;61032;50.782;6.818;2023-02-18T05:52:18;0.10;;;0.10;;
72891;SDS011;61032;50.782;6.818;2023-02-18T05:53:19;0.10;;;0.10;;
72891;SDS011;61032;50.782;6.818;2023-02-18T05:54:19;0.10;;;0.08;;
72891;SDS011;61032;50.782;6.818;2023-02-18T05:55:19;0.10;;;0.10;;
72891;SDS011;61032;50.782;6.818;2023-02-18T05:56:20;0.00;;;0.00;;
72891;SDS011;61032;50.782;6.818;2023-02-18T05:57:20;0.10;;;0.00;;
72891;SDS011;61032;50.782;6.818;2023-02-18T05:58:21;0.25;;;0.03;;
72891;SDS011;61032;50.782;6.818;2023-02-18T05:59:21;0.10;;;0.00;;
72891;SDS011;61032;50.782;6.818;2023-02-18T06:00:21;0.17;;;0.00;;
72891;SDS011;61032;50.782;6.818;2023-02-18T06:01:22;0.55;;;0.00;;
72891;SDS011;61032;50.782;6.818;2023-02-18T06:02:22;0.20;;;0.15;;
72891;SDS011;61032;50.782;6.818;2023-02-18T06:03:23;0.00;;;0.00;;
72891;SDS011;61032;50.782;6.818;2023-02-18T06:04:23;0.13;;;0.00;;
72891;SDS011;61032;50.782;6.818;2023-02-18T06:05:24;0.03;;;0.03;;
72891;SDS011;61032;50.782;6.818;2023-02-18T06:06:24;0.00;;;0.00;;
72891;SDS011;61032;50.782;6.818;2023-02-18T06:07:25;0.03;;;0.00;;
72891;SDS011;61032;50.782;6.818;2023-02-18T06:08:25;0.10;;;0.10;;
72891;SDS011;61032;50.782;6.818;2023-02-18T06:09:25;0.00;;;0.00;;
72891;SDS011;61032;50.782;6.818;2023-02-18T06:10:26;0.00;;;0.00;;
72891;SDS011;61032;50.782;6.818;2023-02-18T06:11:26;0.03;;;0.00;;
72891;SDS011;61032;50.782;6.818;2023-02-18T06:12:26;0.00;;;0.00;;
72891;SDS011;61032;50.782;6.818;2023-02-18T06:13:27;0.03;;;0.00;;
72891;SDS011;61032;50.782;6.818;2023-02-18T06:14:27;0.20;;;0.10;;
72891;SDS011;61032;50.782;6.818;2023-02-18T06:15:27;0.10;;;0.00;;
72891;SDS011;61032;50.782;6.818;2023-02-18T06:16:28;0.00;;;0.00;;
72891;SDS011;61032;50.782;6.818;2023-02-18T06:17:28;0.30;;;0.00;;
72891;SDS011;61032;50.782;6.818;2023-02-18T06:18:28;0.10;;;0.00;;
72891;SDS011;61032;50.782;6.818;2023-02-18T06:19:29;0.10;;;0.10;;
72891;SDS011;61032;50.782;6.818;2023-02-18T06:20:29;0.03;;;0.00;;
72891;SDS011;61032;50.782;6.818;2023-02-18T06:21:29;0.00;;;0.00;;
72891;SDS011;61032;50.782;6.818;2023-02-18T06:22:29;0.10;;;0.10;;
72891;SDS011;61032;50.782;6.818;2023-02-18T06:23:30;0.00;;;0.00;;
72891;SDS011;61032;50.782;6.818;2023-02-18T06:24:30;0.10;;;0.00;;
72891;SDS011;61032;50.782;6.818;2023-02-18T06:25:31;0.75;;;0.00;;
72891;SDS011;61032;50.782;6.818;2023-02-18T06:26:31;0.20;;;0.10;;
72891;SDS011;61032;50.782;6.818;2023-02-18T06:27:32;0.05;;;0.00;;
72891;SDS011;61032;50.782;6.818;2023-02-18T06:28:32;0.10;;;0.00;;
72891;SDS011;61032;50.782;6.818;2023-02-18T06:29:32;0.35;;;0.00;;
72891;SDS011;61032;50.782;6.818;2023-02-18T06:31:35;0.10;;;0.10;;
72891;SDS011;61032;50.782;6.818;2023-02-18T06:32:35;0.00;;;0.00;;
72891;SDS011;61032;50.782;6.818;2023-02-18T06:33:35;0.10;;;0.00;;
72891;SDS011;61032;50.782;6.818;2023-02-18T06:34:35;0.00;;;0.00;;
72891;SDS011;61032;50.782;6.818;2023-02-18T06:35:36;0.00;;;0.00;;
72891;SDS011;61032;50.782;6.818;2023-02-18T06:36:36;0.00;;;0.00;;
72891;SDS011;61032;50.782;6.818;2023-02-18T06:37:36;0.47;;;0.00;;
72891;SDS011;61032;50.782;6.818;2023-02-18T06:38:37;0.00;;;0.00;;
72891;SDS011;61032;50.782;6.818;2023-02-18T06:39:39;0.00;;;0.00;;
72891;SDS011;61032;50.782;6.818;2023-02-18T06:40:39;0.10;;;0.00;;
72891;SDS011;61032;50.782;6.818;2023-02-18T06:41:40;0.10;;;0.00;;
72891;SDS011;61032;50.782;6.818;2023-02-18T06:42:40;0.10;;;0.00;;
72891;SDS011;61032;50.782;6.818;2023-02-18T06:43:40;1.33;;;0.10;;
72891;SDS011;61032;50.782;6.818;2023-02-18T06:44:41;0.57;;;0.10;;
72891;SDS011;61032;50.782;6.818;2023-02-18T06:45:41;0.30;;;0.10;;
72891;SDS011;61032;50.782;6.818;2023-02-18T06:46:41;0.22;;;0.10;;
72891;SDS011;61032;50.782;6.818;2023-02-18T06:47:43;0.10;;;0.00;;
72891;SDS011;61032;50.782;6.818;2023-02-18T06:48:43;0.10;;;0.00;;
72891;SDS011;61032;50.782;6.818;2023-02-18T06:49:44;1.50;;;0.00;;
72891;SDS011;61032;50.782;6.818;2023-02-18T06:50:44;0.17;;;0.10;;
72891;SDS011;61032;50.782;6.818;2023-02-18T06:51:44;0.20;;;0.15;;
72891;SDS011;61032;50.782;6.818;2023-02-18T06:52:44;0.10;;;0.00;;
72891;SDS011;61032;50.782;6.818;2023-02-18T06:53:45;0.10;;;0.00;;
72891;SDS011;61032;50.782;6.818;2023-02-18T06:54:45;0.63;;;0.00;;
72891;SDS011;61032;50.782;6.818;2023-02-18T06:55:45;0.20;;;0.10;;